sensor_id;sensor_type;location;lat;lon;timestamp;P1;durP1;ratioP1;P2;durP2;ratioP2
17024;SDS011;8629;42.496;25.620;2022-08-24T00:00:51;5.50;;;4.33;;
17024;SDS011;8629;42.496;25.620;2022-08-24T00:03:20;5.00;;;4.30;;
17024;SDS011;8629;42.496;25.620;2022-08-24T00:05:46;4.73;;;4.13;;
17024;SDS011;8629;42.496;25.620;2022-08-24T00:08:13;4.63;;;4.17;;
17024;SDS011;8629;42.496;25.620;2022-08-24T00:10:40;4.60;;;4.20;;
17024;SDS011;8629;42.496;25.620;2022-08-24T00:13:07;7.73;;;3.93;;
17024;SDS011;8629;42.496;25.620;2022-08-24T00:15:34;8.20;;;5.37;;
17024;SDS011;8629;42.496;25.620;2022-08-24T00:18:01;4.60;;;4.20;;
17024;SDS011;8629;42.496;25.620;2022-08-24T00:20:29;4.93;;;4.43;;
17024;SDS011;8629;42.496;25.620;2022-08-24T00:22:56;11.23;;;5.30;;
17024;SDS011;8629;42.496;25.620;2022-08-24T00:25:23;8.87;;;5.37;;
17024;SDS011;8629;42.496;25.620;2022-08-24T00:27:51;6.77;;;4.73;;
17024;SDS011;8629;42.496;25.620;2022-08-24T00:30:18;5.53;;;4.60;;
17024;SDS011;8629;42.496;25.620;2022-08-24T00:32:46;6.23;;;4.63;;
17024;SDS011;8629;42.496;25.620;2022-08-24T00:35:14;5.27;;;4.60;;
17024;SDS011;8629;42.496;25.620;2022-08-24T00:37:43;7.00;;;4.63;;
17024;SDS011;8629;42.496;25.620;2022-08-24T00:40:13;6.43;;;4.50;;
17024;SDS011;8629;42.496;25.620;2022-08-24T00:42:41;5.23;;;4.17;;
17024;SDS011;8629;42.496;25.620;2022-08-24T00:45:09;5.37;;;4.90;;
17024;SDS011;8629;42.496;25.620;2022-08-24T00:47:38;6.37;;;4.77;;
17024;SDS011;8629;42.496;25.620;2022-08-24T00:50:09;5.47;;;4.83;;
17024;SDS011;8629;42.496;25.620;2022-08-24T00:52:39;6.43;;;4.50;;
17024;SDS011;8629;42.496;25.620;2022-08-24T00:55:11;4.87;;;4.30;;
17024;SDS011;8629;42.496;25.620;2022-08-24T00:57:40;5.20;;;4.70;;
17024;SDS011;8629;42.496;25.620;2022-08-24T01:00:09;5.07;;;4.20;;
17024;SDS011;8629;42.496;25.620;2022-08-24T01:02:40;5.40;;;4.27;;
17024;SDS011;8629;42.496;25.620;2022-08-24T01:05:09;6.43;;;3.90;;
17024;SDS011;8629;42.496;25.620;2022-08-24T01:07:37;4.90;;;4.30;;
17024;SDS011;8629;42.496;25.620;2022-08-24T01:10:06;5.20;;;3.73;;
17024;SDS011;8629;42.496;25.620;2022-08-24T01:12:36;4.60;;;3.73;;
17024;SDS011;8629;42.496;25.620;2022-08-24T01:15:06;7.80;;;4.43;;
17024;SDS011;8629;42.496;25.620;2022-08-24T01:17:34;7.47;;;4.17;;
17024;SDS011;8629;42.496;25.620;2022-08-24T01:20:18;4.13;;;3.80;;
17024;SDS011;8629;42.496;25.620;2022-08-24T01:22:53;4.40;;;4.00;;
17024;SDS011;8629;42.496;25.620;2022-08-24T01:25:25;3.63;;;3.43;;
17024;SDS011;8629;42.496;25.620;2022-08-24T01:27:54;4.37;;;3.97;;
17024;SDS011;8629;42.496;25.620;2022-08-24T01:30:22;4.07;;;3.40;;
17024;SDS011;8629;42.496;25.620;2022-08-24T01:32:52;4.23;;;3.87;;
17024;SDS011;8629;42.496;25.620;2022-08-24T01:35:20;4.37;;;3.97;;
17024;SDS011;8629;42.496;25.620;2022-08-24T01:37:47;3.87;;;3.57;;
17024;SDS011;8629;42.496;25.620;2022-08-24T01:40:14;5.37;;;4.10;;
17024;SDS011;8629;42.496;25.620;2022-08-24T01:42:46;4.47;;;4.07;;
17024;SDS011;8629;42.496;25.620;2022-08-24T01:45:14;4.43;;;3.80;;
17024;SDS011;8629;42.496;25.620;2022-08-24T01:47:41;7.13;;;4.23;;
17024;SDS011;8629;42.496;25.620;2022-08-24T01:50:07;4.33;;;4.03;;
17024;SDS011;8629;42.496;25.620;2022-08-24T01:52:34;4.43;;;3.97;;
17024;SDS011;8629;42.496;25.620;2022-08-24T01:55:04;5.70;;;3.47;;
17024;SDS011;8629;42.496;25.620;2022-08-24T01:57:31;3.43;;;3.13;;
17024;SDS011;8629;42.496;25.620;2022-08-24T02:00:00;3.77;;;3.30;;
17024;SDS011;8629;42.496;25.620;2022-08-24T02:02:28;8.50;;;3.93;;
17024;SDS011;8629;42.496;25.620;2022-08-24T02:04:56;3.67;;;3.33;;
17024;SDS011;8629;42.496;25.620;2022-08-24T02:07:23;5.27;;;3.63;;
17024;SDS011;8629;42.496;25.620;2022-08-24T02:09:50;3.90;;;3.60;;
17024;SDS011;8629;42.496;25.620;2022-08-24T02:12:18;5.07;;;3.80;;
17024;SDS011;8629;42.496;25.620;2022-08-24T02:14:45;4.37;;;3.97;;
17024;SDS011;8629;42.496;25.620;2022-08-24T02:17:13;3.90;;;3.50;;
17024;SDS011;8629;42.496;25.620;2022-08-24T02:19:40;4.27;;;3.80;;
17024;SDS011;8629;42.496;25.620;2022-08-24T02:22:08;4.50;;;4.20;;
17024;SDS011;8629;42.496;25.620;2022-08-24T02:24:34;4.40;;;4.00;;
17024;SDS011;8629;42.496;25.620;2022-08-24T02:27:01;5.27;;;3.80;;
17024;SDS011;8629;42.496;25.620;2022-08-24T02:29:29;4.50;;;4.20;;
17024;SDS011;8629;42.496;25.620;2022-08-24T02:31:56;5.73;;;4.60;;
17024;SDS011;8629;42.496;25.620;2022-08-24T02:34:24;6.07;;;4.53;;
17024;SDS011;8629;42.496;25.620;2022-08-24T02:36:51;4.87;;;4.40;;
17024;SDS011;8629;42.496;25.620;2022-08-24T02:39:18;4.20;;;3.90;;
17024;SDS011;8629;42.496;25.620;2022-08-24T02:41:45;5.07;;;4.63;;
17024;SDS011;8629;42.496;25.620;2022-08-24T02:44:13;4.23;;;3.93;;
17024;SDS011;8629;42.496;25.620;2022-08-24T02:46:40;6.07;;;4.13;;
17024;SDS011;8629;42.496;25.620;2022-08-24T02:49:07;4.70;;;4.30;;
17024;SDS011;8629;42.496;25.620;2022-08-24T02:51:35;4.53;;;4.07;;
17024;SDS011;8629;42.496;25.620;2022-08-24T02:54:02;4.77;;;4.37;;
17024;SDS011;8629;42.496;25.620;2022-08-24T02:56:29;4.70;;;4.03;;
17024;SDS011;8629;42.496;25.620;2022-08-24T02:58:56;4.33;;;3.93;;
17024;SDS011;8629;42.496;25.620;2022-08-24T03:01:23;5.13;;;4.67;;
17024;SDS011;8629;42.496;25.620;2022-08-24T03:03:50;4.70;;;4.30;;
17024;SDS011;8629;42.496;25.620;2022-08-24T03:06:17;6.23;;;5.03;;
17024;SDS011;8629;42.496;25.620;2022-08-24T03:08:46;4.90;;;4.53;;
17024;SDS011;8629;42.496;25.620;2022-08-24T03:11:12;7.57;;;4.60;;
17024;SDS011;8629;42.496;25.620;2022-08-24T03:13:40;7.20;;;4.20;;
17024;SDS011;8629;42.496;25.620;2022-08-24T03:16:06;6.20;;;4.20;;
17024;SDS011;8629;42.496;25.620;2022-08-24T03:18:33;6.43;;;4.20;;
17024;SDS011;8629;42.496;25.620;2022-08-24T03:21:00;4.57;;;4.17;;
17024;SDS011;8629;42.496;25.620;2022-08-24T03:23:28;4.50;;;4.10;;
17024;SDS011;8629;42.496;25.620;2022-08-24T03:25:56;4.87;;;3.90;;
17024;SDS011;8629;42.496;25.620;2022-08-24T03:28:23;5.07;;;4.60;;
17024;SDS011;8629;42.496;25.620;2022-08-24T03:30:50;5.47;;;4.97;;
17024;SDS011;8629;42.496;25.620;2022-08-24T03:33:17;4.77;;;4.37;;
17024;SDS011;8629;42.496;25.620;2022-08-24T03:35:43;4.17;;;3.87;;
17024;SDS011;8629;42.496;25.620;2022-08-24T03:38:10;5.43;;;4.87;;
17024;SDS011;8629;42.496;25.620;2022-08-24T03:40:37;4.93;;;4.43;;
17024;SDS011;8629;42.496;25.620;2022-08-24T03:43:06;4.80;;;4.40;;
17024;SDS011;8629;42.496;25.620;2022-08-24T03:45:33;5.57;;;5.07;;
17024;SDS011;8629;42.496;25.620;2022-08-24T03:48:00;5.77;;;5.13;;
17024;SDS011;8629;42.496;25.620;2022-08-24T03:50:27;5.00;;;4.60;;
17024;SDS011;8629;42.496;25.620;2022-08-24T03:52:53;4.20;;;3.90;;
17024;SDS011;8629;42.496;25.620;2022-08-24T03:55:20;5.13;;;4.67;;
17024;SDS011;8629;42.496;25.620;2022-08-24T03:57:47;8.60;;;4.33;;
17024;SDS011;8629;42.496;25.620;2022-08-24T04:00:16;7.53;;;4.60;;
17024;SDS011;8629;42.496;25.620;2022-08-24T04:02:42;8.43;;;4.93;;
17024;SDS011;8629;42.496;25.620;2022-08-24T04:05:09;5.57;;;4.83;;
17024;SDS011;8629;42.496;25.620;2022-08-24T04:07:37;5.00;;;4.60;;
17024;SDS011;8629;42.496;25.620;2022-08-24T04:10:04;5.23;;;4.83;;
17024;SDS011;8629;42.496;25.620;2022-08-24T04:12:31;5.27;;;4.77;;
17024;SDS011;8629;42.496;25.620;2022-08-24T04:14:58;5.47;;;4.70;;
17024;SDS011;8629;42.496;25.620;2022-08-24T04:17:27;5.93;;;4.30;;
17024;SDS011;8629;42.496;25.620;2022-08-24T04:19:54;5.03;;;4.43;;
17024;SDS011;8629;42.496;25.620;2022-08-24T04:22:24;5.27;;;4.37;;
17024;SDS011;8629;42.496;25.620;2022-08-24T04:24:51;4.80;;;4.33;;
17024;SDS011;8629;42.496;25.620;2022-08-24T04:27:19;4.53;;;4.13;;
17024;SDS011;8629;42.496;25.620;2022-08-24T04:29:45;4.57;;;4.13;;
17024;SDS011;8629;42.496;25.620;2022-08-24T04:32:12;3.83;;;3.53;;
17024;SDS011;8629;42.496;25.620;2022-08-24T04:34:42;6.73;;;4.17;;
17024;SDS011;8629;42.496;25.620;2022-08-24T04:37:09;5.03;;;4.57;;
17024;SDS011;8629;42.496;25.620;2022-08-24T04:39:36;6.03;;;4.80;;
17024;SDS011;8629;42.496;25.620;2022-08-24T04:42:03;7.00;;;4.30;;
17024;SDS011;8629;42.496;25.620;2022-08-24T04:44:30;4.20;;;3.80;;
17024;SDS011;8629;42.496;25.620;2022-08-24T04:46:57;4.83;;;4.20;;
17024;SDS011;8629;42.496;25.620;2022-08-24T04:49:25;5.40;;;4.37;;
17024;SDS011;8629;42.496;25.620;2022-08-24T04:51:54;4.53;;;4.03;;
17024;SDS011;8629;42.496;25.620;2022-08-24T04:54:20;3.83;;;3.63;;
17024;SDS011;8629;42.496;25.620;2022-08-24T04:56:48;5.93;;;4.13;;
17024;SDS011;8629;42.496;25.620;2022-08-24T04:59:15;4.70;;;3.37;;
17024;SDS011;8629;42.496;25.620;2022-08-24T05:01:42;4.87;;;3.10;;
17024;SDS011;8629;42.496;25.620;2022-08-24T05:04:09;3.77;;;3.43;;
17024;SDS011;8629;42.496;25.620;2022-08-24T05:06:35;4.00;;;3.63;;
17024;SDS011;8629;42.496;25.620;2022-08-24T05:09:04;4.17;;;3.87;;
17024;SDS011;8629;42.496;25.620;2022-08-24T05:11:31;5.93;;;4.00;;
17024;SDS011;8629;42.496;25.620;2022-08-24T05:13:57;3.63;;;3.37;;
17024;SDS011;8629;42.496;25.620;2022-08-24T05:16:24;4.77;;;3.70;;
17024;SDS011;8629;42.496;25.620;2022-08-24T05:18:51;3.30;;;3.00;;
17024;SDS011;8629;42.496;25.620;2022-08-24T05:21:19;5.77;;;3.80;;
17024;SDS011;8629;42.496;25.620;2022-08-24T05:23:47;4.20;;;3.77;;
17024;SDS011;8629;42.496;25.620;2022-08-24T05:26:16;6.70;;;3.53;;
17024;SDS011;8629;42.496;25.620;2022-08-24T05:28:44;6.40;;;3.70;;
17024;SDS011;8629;42.496;25.620;2022-08-24T05:31:12;6.60;;;3.80;;
17024;SDS011;8629;42.496;25.620;2022-08-24T05:33:41;6.83;;;3.33;;
17024;SDS011;8629;42.496;25.620;2022-08-24T05:36:13;11.80;;;4.53;;
17024;SDS011;8629;42.496;25.620;2022-08-24T05:38:42;5.80;;;3.30;;
17024;SDS011;8629;42.496;25.620;2022-08-24T05:41:09;4.83;;;4.17;;
17024;SDS011;8629;42.496;25.620;2022-08-24T05:43:37;4.90;;;3.80;;
17024;SDS011;8629;42.496;25.620;2022-08-24T05:46:04;5.03;;;3.50;;
17024;SDS011;8629;42.496;25.620;2022-08-24T05:48:31;5.07;;;3.87;;
17024;SDS011;8629;42.496;25.620;2022-08-24T05:50:58;6.37;;;4.03;;
17024;SDS011;8629;42.496;25.620;2022-08-24T05:53:25;4.20;;;3.80;;
17024;SDS011;8629;42.496;25.620;2022-08-24T05:55:52;5.47;;;4.23;;
17024;SDS011;8629;42.496;25.620;2022-08-24T05:58:19;4.83;;;4.40;;
17024;SDS011;8629;42.496;25.620;2022-08-24T06:00:47;7.67;;;4.30;;
17024;SDS011;8629;42.496;25.620;2022-08-24T06:03:14;8.20;;;3.83;;
17024;SDS011;8629;42.496;25.620;2022-08-24T06:05:41;7.90;;;4.53;;
17024;SDS011;8629;42.496;25.620;2022-08-24T06:08:09;5.63;;;3.87;;
17024;SDS011;8629;42.496;25.620;2022-08-24T06:10:39;7.30;;;3.97;;
17024;SDS011;8629;42.496;25.620;2022-08-24T06:13:07;8.57;;;4.20;;
17024;SDS011;8629;42.496;25.620;2022-08-24T06:15:34;5.53;;;4.10;;
17024;SDS011;8629;42.496;25.620;2022-08-24T06:18:04;6.47;;;4.47;;
17024;SDS011;8629;42.496;25.620;2022-08-24T06:20:36;7.03;;;5.23;;
17024;SDS011;8629;42.496;25.620;2022-08-24T06:23:05;6.03;;;3.80;;
17024;SDS011;8629;42.496;25.620;2022-08-24T06:25:32;6.63;;;4.63;;
17024;SDS011;8629;42.496;25.620;2022-08-24T06:28:16;5.40;;;4.07;;
17024;SDS011;8629;42.496;25.620;2022-08-24T06:30:43;6.97;;;4.97;;
17024;SDS011;8629;42.496;25.620;2022-08-24T06:33:11;6.83;;;4.27;;
17024;SDS011;8629;42.496;25.620;2022-08-24T06:35:38;6.77;;;3.97;;
17024;SDS011;8629;42.496;25.620;2022-08-24T06:38:05;7.20;;;4.10;;
17024;SDS011;8629;42.496;25.620;2022-08-24T06:40:32;8.93;;;4.30;;
17024;SDS011;8629;42.496;25.620;2022-08-24T06:43:00;8.47;;;4.60;;
17024;SDS011;8629;42.496;25.620;2022-08-24T06:45:28;6.57;;;4.37;;
17024;SDS011;8629;42.496;25.620;2022-08-24T06:47:55;10.93;;;4.90;;
17024;SDS011;8629;42.496;25.620;2022-08-24T06:50:23;8.80;;;3.70;;
17024;SDS011;8629;42.496;25.620;2022-08-24T06:52:50;9.40;;;4.40;;
17024;SDS011;8629;42.496;25.620;2022-08-24T06:55:17;8.50;;;3.90;;
17024;SDS011;8629;42.496;25.620;2022-08-24T06:57:44;8.90;;;4.50;;
17024;SDS011;8629;42.496;25.620;2022-08-24T07:00:11;8.03;;;4.33;;
17024;SDS011;8629;42.496;25.620;2022-08-24T07:02:38;10.13;;;4.80;;
17024;SDS011;8629;42.496;25.620;2022-08-24T07:05:06;13.77;;;4.33;;
17024;SDS011;8629;42.496;25.620;2022-08-24T07:07:35;10.67;;;4.33;;
17024;SDS011;8629;42.496;25.620;2022-08-24T07:10:02;11.17;;;4.60;;
17024;SDS011;8629;42.496;25.620;2022-08-24T07:12:30;7.97;;;3.90;;
17024;SDS011;8629;42.496;25.620;2022-08-24T07:14:57;11.10;;;4.10;;
17024;SDS011;8629;42.496;25.620;2022-08-24T07:17:24;8.20;;;3.60;;
17024;SDS011;8629;42.496;25.620;2022-08-24T07:19:51;12.00;;;4.20;;
17024;SDS011;8629;42.496;25.620;2022-08-24T07:22:17;6.93;;;4.07;;
17024;SDS011;8629;42.496;25.620;2022-08-24T07:24:46;7.03;;;3.93;;
17024;SDS011;8629;42.496;25.620;2022-08-24T07:27:12;8.43;;;4.07;;
17024;SDS011;8629;42.496;25.620;2022-08-24T07:29:39;10.17;;;3.77;;
17024;SDS011;8629;42.496;25.620;2022-08-24T07:32:06;12.37;;;4.00;;
17024;SDS011;8629;42.496;25.620;2022-08-24T07:34:34;6.77;;;3.37;;
17024;SDS011;8629;42.496;25.620;2022-08-24T07:37:01;11.33;;;3.80;;
17024;SDS011;8629;42.496;25.620;2022-08-24T07:39:29;9.37;;;4.43;;
17024;SDS011;8629;42.496;25.620;2022-08-24T07:41:58;9.70;;;4.53;;
17024;SDS011;8629;42.496;25.620;2022-08-24T07:44:25;7.33;;;4.03;;
17024;SDS011;8629;42.496;25.620;2022-08-24T07:46:52;7.27;;;3.63;;
17024;SDS011;8629;42.496;25.620;2022-08-24T07:49:18;5.43;;;3.37;;
17024;SDS011;8629;42.496;25.620;2022-08-24T07:51:45;8.37;;;3.73;;
17024;SDS011;8629;42.496;25.620;2022-08-24T07:54:13;6.87;;;4.00;;
17024;SDS011;8629;42.496;25.620;2022-08-24T07:56:40;9.57;;;3.97;;
17024;SDS011;8629;42.496;25.620;2022-08-24T07:59:08;6.30;;;3.60;;
17024;SDS011;8629;42.496;25.620;2022-08-24T08:01:35;6.47;;;4.13;;
17024;SDS011;8629;42.496;25.620;2022-08-24T08:04:02;7.07;;;3.10;;
17024;SDS011;8629;42.496;25.620;2022-08-24T08:06:30;11.07;;;3.23;;
17024;SDS011;8629;42.496;25.620;2022-08-24T08:08:57;5.53;;;3.23;;
17024;SDS011;8629;42.496;25.620;2022-08-24T08:11:24;5.70;;;3.00;;
17024;SDS011;8629;42.496;25.620;2022-08-24T08:13:50;8.67;;;3.20;;
17024;SDS011;8629;42.496;25.620;2022-08-24T08:16:19;4.03;;;2.90;;
17024;SDS011;8629;42.496;25.620;2022-08-24T08:18:46;6.50;;;3.60;;
17024;SDS011;8629;42.496;25.620;2022-08-24T08:21:13;9.10;;;3.53;;
17024;SDS011;8629;42.496;25.620;2022-08-24T08:23:53;10.17;;;3.60;;
17024;SDS011;8629;42.496;25.620;2022-08-24T08:26:38;6.60;;;3.00;;
17024;SDS011;8629;42.496;25.620;2022-08-24T08:29:05;5.83;;;3.27;;
17024;SDS011;8629;42.496;25.620;2022-08-24T08:31:33;9.83;;;3.40;;
17024;SDS011;8629;42.496;25.620;2022-08-24T08:34:01;6.67;;;3.27;;
17024;SDS011;8629;42.496;25.620;2022-08-24T08:36:28;4.57;;;3.30;;
17024;SDS011;8629;42.496;25.620;2022-08-24T08:38:56;7.20;;;3.27;;
17024;SDS011;8629;42.496;25.620;2022-08-24T08:44:32;10.13;;;3.97;;
17024;SDS011;8629;42.496;25.620;2022-08-24T08:47:10;8.77;;;3.77;;
17024;SDS011;8629;42.496;25.620;2022-08-24T08:49:56;13.17;;;4.47;;
17024;SDS011;8629;42.496;25.620;2022-08-24T08:52:39;9.93;;;3.40;;
17024;SDS011;8629;42.496;25.620;2022-08-24T08:55:20;5.20;;;3.37;;
17024;SDS011;8629;42.496;25.620;2022-08-24T08:57:54;8.67;;;3.87;;
17024;SDS011;8629;42.496;25.620;2022-08-24T09:00:26;9.97;;;3.40;;
17024;SDS011;8629;42.496;25.620;2022-08-24T09:03:13;10.83;;;3.83;;
17024;SDS011;8629;42.496;25.620;2022-08-24T09:05:49;8.23;;;4.00;;
17024;SDS011;8629;42.496;25.620;2022-08-24T09:08:26;7.47;;;3.00;;
17024;SDS011;8629;42.496;25.620;2022-08-24T09:11:02;8.67;;;4.03;;
17024;SDS011;8629;42.496;25.620;2022-08-24T09:13:36;9.40;;;3.13;;
17024;SDS011;8629;42.496;25.620;2022-08-24T09:16:10;13.17;;;3.80;;
17024;SDS011;8629;42.496;25.620;2022-08-24T09:19:01;5.77;;;3.23;;
17024;SDS011;8629;42.496;25.620;2022-08-24T09:21:43;4.10;;;2.93;;
17024;SDS011;8629;42.496;25.620;2022-08-24T09:24:22;3.20;;;2.70;;
17024;SDS011;8629;42.496;25.620;2022-08-24T09:26:55;5.10;;;2.53;;
17024;SDS011;8629;42.496;25.620;2022-08-24T09:29:32;5.03;;;2.50;;
17024;SDS011;8629;42.496;25.620;2022-08-24T09:32:11;7.43;;;2.70;;
17024;SDS011;8629;42.496;25.620;2022-08-24T09:34:52;9.43;;;3.37;;
17024;SDS011;8629;42.496;25.620;2022-08-24T09:37:29;7.40;;;3.20;;
17024;SDS011;8629;42.496;25.620;2022-08-24T09:40:00;4.63;;;3.27;;
17024;SDS011;8629;42.496;25.620;2022-08-24T09:42:44;10.27;;;3.63;;
17024;SDS011;8629;42.496;25.620;2022-08-24T09:45:33;7.50;;;3.03;;
17024;SDS011;8629;42.496;25.620;2022-08-24T09:48:13;5.47;;;2.93;;
17024;SDS011;8629;42.496;25.620;2022-08-24T09:57:02;9.87;;;3.37;;
17024;SDS011;8629;42.496;25.620;2022-08-24T09:59:53;15.97;;;3.60;;
17024;SDS011;8629;42.496;25.620;2022-08-24T10:02:30;12.33;;;3.53;;
17024;SDS011;8629;42.496;25.620;2022-08-24T10:05:08;7.83;;;3.60;;
17024;SDS011;8629;42.496;25.620;2022-08-24T10:07:40;14.80;;;5.00;;
17024;SDS011;8629;42.496;25.620;2022-08-24T10:10:17;12.80;;;4.90;;
17024;SDS011;8629;42.496;25.620;2022-08-24T10:12:51;10.13;;;3.70;;
17024;SDS011;8629;42.496;25.620;2022-08-24T10:15:26;15.13;;;4.67;;
17024;SDS011;8629;42.496;25.620;2022-08-24T10:18:00;9.13;;;3.70;;
17024;SDS011;8629;42.496;25.620;2022-08-24T10:20:39;8.23;;;5.03;;
17024;SDS011;8629;42.496;25.620;2022-08-24T10:23:26;7.13;;;3.87;;
17024;SDS011;8629;42.496;25.620;2022-08-24T10:26:03;13.00;;;4.50;;
17024;SDS011;8629;42.496;25.620;2022-08-24T10:28:41;12.13;;;4.37;;
17024;SDS011;8629;42.496;25.620;2022-08-24T10:31:16;13.63;;;4.00;;
17024;SDS011;8629;42.496;25.620;2022-08-24T10:33:49;17.47;;;4.50;;
17024;SDS011;8629;42.496;25.620;2022-08-24T10:39:21;10.13;;;4.50;;
17024;SDS011;8629;42.496;25.620;2022-08-24T10:42:11;11.60;;;4.23;;
17024;SDS011;8629;42.496;25.620;2022-08-24T10:45:16;14.43;;;4.30;;
17024;SDS011;8629;42.496;25.620;2022-08-24T10:48:00;11.77;;;4.27;;
17024;SDS011;8629;42.496;25.620;2022-08-24T10:50:39;10.77;;;4.20;;
17024;SDS011;8629;42.496;25.620;2022-08-24T10:53:24;8.37;;;4.00;;
17024;SDS011;8629;42.496;25.620;2022-08-24T11:01:26;13.13;;;4.53;;
17024;SDS011;8629;42.496;25.620;2022-08-24T11:03:56;11.87;;;5.17;;
17024;SDS011;8629;42.496;25.620;2022-08-24T11:06:27;10.70;;;4.93;;
17024;SDS011;8629;42.496;25.620;2022-08-24T11:08:57;13.55;;;5.25;;
17024;SDS011;8629;42.496;25.620;2022-08-24T11:11:29;13.60;;;4.75;;
17024;SDS011;8629;42.496;25.620;2022-08-24T11:13:57;10.15;;;5.18;;
17024;SDS011;8629;42.496;25.620;2022-08-24T11:16:28;9.70;;;5.43;;
17024;SDS011;8629;42.496;25.620;2022-08-24T11:18:58;13.55;;;5.35;;
17024;SDS011;8629;42.496;25.620;2022-08-24T11:21:42;15.20;;;5.78;;
17024;SDS011;8629;42.496;25.620;2022-08-24T11:24:22;11.80;;;5.07;;
17024;SDS011;8629;42.496;25.620;2022-08-24T11:26:51;10.53;;;5.30;;
17024;SDS011;8629;42.496;25.620;2022-08-24T11:29:21;10.27;;;5.10;;
17024;SDS011;8629;42.496;25.620;2022-08-24T11:31:56;12.77;;;5.13;;
17024;SDS011;8629;42.496;25.620;2022-08-24T11:34:30;14.10;;;5.37;;
17024;SDS011;8629;42.496;25.620;2022-08-24T11:36:59;14.60;;;5.50;;
17024;SDS011;8629;42.496;25.620;2022-08-24T11:39:30;12.23;;;5.43;;
17024;SDS011;8629;42.496;25.620;2022-08-24T11:42:00;17.40;;;5.32;;
17024;SDS011;8629;42.496;25.620;2022-08-24T11:44:36;13.23;;;6.40;;
17024;SDS011;8629;42.496;25.620;2022-08-24T11:47:12;12.73;;;6.15;;
17024;SDS011;8629;42.496;25.620;2022-08-24T11:49:50;12.90;;;5.75;;
17024;SDS011;8629;42.496;25.620;2022-08-24T11:52:21;19.20;;;6.90;;
17024;SDS011;8629;42.496;25.620;2022-08-24T11:55:00;19.63;;;7.03;;
17024;SDS011;8629;42.496;25.620;2022-08-24T11:57:30;19.27;;;7.30;;
17024;SDS011;8629;42.496;25.620;2022-08-24T12:00:05;18.83;;;7.20;;
17024;SDS011;8629;42.496;25.620;2022-08-24T12:02:37;13.87;;;6.20;;
17024;SDS011;8629;42.496;25.620;2022-08-24T12:05:10;17.90;;;7.03;;
17024;SDS011;8629;42.496;25.620;2022-08-24T12:07:47;19.53;;;7.27;;
17024;SDS011;8629;42.496;25.620;2022-08-24T12:10:19;22.80;;;6.97;;
17024;SDS011;8629;42.496;25.620;2022-08-24T12:12:52;22.43;;;7.83;;
17024;SDS011;8629;42.496;25.620;2022-08-24T12:15:24;12.90;;;6.20;;
17024;SDS011;8629;42.496;25.620;2022-08-24T12:18:01;19.13;;;7.47;;
17024;SDS011;8629;42.496;25.620;2022-08-24T12:20:30;16.67;;;6.82;;
17024;SDS011;8629;42.496;25.620;2022-08-24T12:23:01;14.77;;;6.13;;
17024;SDS011;8629;42.496;25.620;2022-08-24T12:25:29;24.77;;;7.50;;
17024;SDS011;8629;42.496;25.620;2022-08-24T12:28:17;17.93;;;6.47;;
17024;SDS011;8629;42.496;25.620;2022-08-24T12:30:47;20.27;;;6.35;;
17024;SDS011;8629;42.496;25.620;2022-08-24T12:33:15;22.08;;;6.47;;
17024;SDS011;8629;42.496;25.620;2022-08-24T12:35:44;18.73;;;7.13;;
17024;SDS011;8629;42.496;25.620;2022-08-24T12:38:14;19.45;;;7.40;;
17024;SDS011;8629;42.496;25.620;2022-08-24T12:40:43;15.27;;;6.43;;
17024;SDS011;8629;42.496;25.620;2022-08-24T12:43:17;13.93;;;5.60;;
17024;SDS011;8629;42.496;25.620;2022-08-24T12:45:47;21.52;;;6.97;;
17024;SDS011;8629;42.496;25.620;2022-08-24T12:48:21;14.05;;;5.60;;
17024;SDS011;8629;42.496;25.620;2022-08-24T12:50:54;19.00;;;6.93;;
17024;SDS011;8629;42.496;25.620;2022-08-24T12:53:39;19.13;;;5.65;;
17024;SDS011;8629;42.496;25.620;2022-08-24T12:56:17;19.65;;;7.03;;
17024;SDS011;8629;42.496;25.620;2022-08-24T12:58:58;18.58;;;6.55;;
17024;SDS011;8629;42.496;25.620;2022-08-24T13:01:29;18.95;;;6.68;;
17024;SDS011;8629;42.496;25.620;2022-08-24T13:06:58;24.75;;;6.38;;
17024;SDS011;8629;42.496;25.620;2022-08-24T13:09:29;18.67;;;6.03;;
17024;SDS011;8629;42.496;25.620;2022-08-24T13:11:58;19.27;;;5.93;;
17024;SDS011;8629;42.496;25.620;2022-08-24T13:14:26;20.25;;;6.00;;
17024;SDS011;8629;42.496;25.620;2022-08-24T13:17:08;23.17;;;6.28;;
17024;SDS011;8629;42.496;25.620;2022-08-24T13:19:40;23.27;;;6.30;;
17024;SDS011;8629;42.496;25.620;2022-08-24T13:25:17;17.00;;;6.25;;
17024;SDS011;8629;42.496;25.620;2022-08-24T13:27:59;21.30;;;5.68;;
17024;SDS011;8629;42.496;25.620;2022-08-24T13:33:43;17.00;;;6.22;;
17024;SDS011;8629;42.496;25.620;2022-08-24T13:42:12;21.45;;;6.72;;
17024;SDS011;8629;42.496;25.620;2022-08-24T13:44:55;21.52;;;6.28;;
17024;SDS011;8629;42.496;25.620;2022-08-24T13:47:43;14.05;;;5.60;;
17024;SDS011;8629;42.496;25.620;2022-08-24T13:50:26;16.77;;;6.13;;
17024;SDS011;8629;42.496;25.620;2022-08-24T13:53:03;14.85;;;5.65;;
17024;SDS011;8629;42.496;25.620;2022-08-24T13:55:41;19.40;;;6.13;;
17024;SDS011;8629;42.496;25.620;2022-08-24T13:58:18;24.13;;;5.88;;
17024;SDS011;8629;42.496;25.620;2022-08-24T14:00:51;30.50;;;6.85;;
17024;SDS011;8629;42.496;25.620;2022-08-24T14:03:26;19.60;;;5.50;;
17024;SDS011;8629;42.496;25.620;2022-08-24T14:08:58;11.95;;;5.35;;
17024;SDS011;8629;42.496;25.620;2022-08-24T14:14:39;15.40;;;5.28;;
17024;SDS011;8629;42.496;25.620;2022-08-24T14:17:16;19.38;;;5.07;;
17024;SDS011;8629;42.496;25.620;2022-08-24T14:20:07;13.25;;;5.05;;
17024;SDS011;8629;42.496;25.620;2022-08-24T14:22:40;13.45;;;5.80;;
17024;SDS011;8629;42.496;25.620;2022-08-24T14:25:21;14.25;;;5.55;;
17024;SDS011;8629;42.496;25.620;2022-08-24T14:27:49;11.88;;;5.40;;
17024;SDS011;8629;42.496;25.620;2022-08-24T14:33:11;14.10;;;5.45;;
17024;SDS011;8629;42.496;25.620;2022-08-24T14:35:43;14.43;;;4.93;;
17024;SDS011;8629;42.496;25.620;2022-08-24T14:38:15;12.18;;;5.82;;
17024;SDS011;8629;42.496;25.620;2022-08-24T14:40:56;18.73;;;5.90;;
17024;SDS011;8629;42.496;25.620;2022-08-24T14:43:41;20.95;;;6.10;;
17024;SDS011;8629;42.496;25.620;2022-08-24T14:46:18;15.02;;;5.18;;
17024;SDS011;8629;42.496;25.620;2022-08-24T14:48:51;18.13;;;6.03;;
17024;SDS011;8629;42.496;25.620;2022-08-24T14:51:37;19.27;;;5.70;;
17024;SDS011;8629;42.496;25.620;2022-08-24T14:54:21;11.38;;;5.60;;
17024;SDS011;8629;42.496;25.620;2022-08-24T14:56:58;16.38;;;6.32;;
17024;SDS011;8629;42.496;25.620;2022-08-24T14:59:36;14.60;;;5.75;;
17024;SDS011;8629;42.496;25.620;2022-08-24T15:02:20;20.88;;;5.82;;
17024;SDS011;8629;42.496;25.620;2022-08-24T15:05:05;18.45;;;5.95;;
17024;SDS011;8629;42.496;25.620;2022-08-24T15:07:39;17.58;;;5.90;;
17024;SDS011;8629;42.496;25.620;2022-08-24T15:10:10;12.00;;;5.35;;
17024;SDS011;8629;42.496;25.620;2022-08-24T15:12:41;21.57;;;5.20;;
17024;SDS011;8629;42.496;25.620;2022-08-24T15:15:11;10.85;;;5.40;;
17024;SDS011;8629;42.496;25.620;2022-08-24T15:17:54;16.60;;;5.93;;
17024;SDS011;8629;42.496;25.620;2022-08-24T15:20:28;10.77;;;5.20;;
17024;SDS011;8629;42.496;25.620;2022-08-24T15:23:06;15.80;;;5.17;;
17024;SDS011;8629;42.496;25.620;2022-08-24T15:25:38;20.65;;;6.32;;
17024;SDS011;8629;42.496;25.620;2022-08-24T15:28:11;12.57;;;6.00;;
17024;SDS011;8629;42.496;25.620;2022-08-24T15:30:40;13.13;;;5.18;;
17024;SDS011;8629;42.496;25.620;2022-08-24T15:33:11;20.73;;;5.88;;
17024;SDS011;8629;42.496;25.620;2022-08-24T15:35:41;10.90;;;5.83;;
17024;SDS011;8629;42.496;25.620;2022-08-24T15:38:15;13.80;;;6.07;;
17024;SDS011;8629;42.496;25.620;2022-08-24T15:40:44;18.37;;;7.13;;
17024;SDS011;8629;42.496;25.620;2022-08-24T15:43:13;12.40;;;5.30;;
17024;SDS011;8629;42.496;25.620;2022-08-24T15:45:42;13.68;;;5.13;;
17024;SDS011;8629;42.496;25.620;2022-08-24T15:48:13;20.40;;;5.90;;